createdAt,value
2017-10-16T00:01:49.589Z,87.90
2017-10-16T00:04:16.004Z,87.80
2017-10-16T00:06:42.416Z,87.30
2017-10-16T00:09:08.817Z,87.00
2017-10-16T00:11:35.223Z,87.50
2017-10-16T00:14:01.625Z,86.80
2017-10-16T00:16:28.789Z,87.20
2017-10-16T00:18:55.195Z,87.20
2017-10-16T00:21:21.609Z,86.60
2017-10-16T00:23:48.046Z,85.60
2017-10-16T00:26:14.448Z,86.20
2017-10-16T00:28:40.900Z,86.30
2017-10-16T00:31:07.333Z,86.50
2017-10-16T00:33:33.734Z,86.50
2017-10-16T00:36:00.138Z,86.60
2017-10-16T00:38:27.299Z,86.50
2017-10-16T00:40:53.700Z,86.50
2017-10-16T00:43:20.139Z,86.70
2017-10-16T00:45:47.360Z,87.20
2017-10-16T00:48:13.788Z,87.20
2017-10-16T00:50:40.945Z,86.00
2017-10-16T00:53:07.404Z,86.00
2017-10-16T00:55:33.849Z,86.70
2017-10-16T00:58:01.037Z,87.00
2017-10-16T01:00:27.506Z,86.80
2017-10-16T01:02:53.932Z,87.30
2017-10-16T01:05:20.393Z,87.30
2017-10-16T01:07:46.828Z,87.20
2017-10-16T01:10:13.984Z,86.60
2017-10-16T01:12:41.175Z,86.50
2017-10-16T01:15:07.604Z,86.40
2017-10-16T01:17:34.043Z,87.40
2017-10-16T01:20:01.276Z,86.60
2017-10-16T01:22:27.727Z,86.60
2017-10-16T01:24:54.181Z,86.30
2017-10-16T01:27:20.680Z,85.90
2017-10-16T01:29:47.153Z,85.90
2017-10-16T01:32:13.621Z,85.90
2017-10-16T01:34:40.161Z,86.00
2017-10-16T01:37:07.334Z,86.00
2017-10-16T01:39:33.827Z,86.00
2017-10-16T01:42:00.248Z,86.00
2017-10-16T01:44:26.709Z,85.90
2017-10-16T01:46:53.880Z,86.00
2017-10-16T01:49:20.353Z,85.80
2017-10-16T01:51:46.837Z,86.10
2017-10-16T01:54:13.311Z,85.90
2017-10-16T01:56:40.021Z,85.70
2017-10-16T01:59:06.469Z,86.00
2017-10-16T02:01:32.887Z,85.70
2017-10-16T02:03:59.369Z,85.70
2017-10-16T02:06:25.802Z,86.10
2017-10-16T02:08:52.232Z,85.70
2017-10-16T02:11:18.632Z,85.20
2017-10-16T02:13:45.056Z,85.50
2017-10-16T02:16:11.449Z,85.50
2017-10-16T02:18:37.875Z,85.00
2017-10-16T02:21:04.264Z,85.10
2017-10-16T02:23:30.959Z,84.70
2017-10-16T02:25:57.449Z,84.60
2017-10-16T02:28:23.871Z,84.60
2017-10-16T02:30:50.260Z,85.30
2017-10-16T02:33:17.428Z,85.00
2017-10-16T02:35:43.860Z,85.00
2017-10-16T02:38:10.251Z,84.80
2017-10-16T02:40:36.693Z,85.20
2017-10-16T02:43:03.108Z,85.20
2017-10-16T02:45:29.548Z,85.20
2017-10-16T02:47:55.960Z,84.80
2017-10-16T02:50:22.389Z,85.10
2017-10-16T02:52:48.813Z,84.80
2017-10-16T02:55:15.232Z,85.10
2017-10-16T02:57:41.660Z,85.20
2017-10-16T03:00:08.064Z,85.30
2017-10-16T03:02:35.208Z,85.10
2017-10-16T03:05:01.652Z,86.00
2017-10-16T03:07:28.780Z,85.00
2017-10-16T03:09:55.160Z,85.00
2017-10-16T03:12:21.585Z,84.80
2017-10-16T03:14:47.992Z,84.70
2017-10-16T03:17:14.432Z,84.60
2017-10-16T03:19:41.594Z,84.90
2017-10-16T03:22:08.729Z,84.90
2017-10-16T03:24:35.177Z,84.90
2017-10-16T03:27:02.333Z,85.00
2017-10-16T03:29:29.528Z,84.50
2017-10-16T03:31:55.963Z,84.40
2017-10-16T03:34:22.447Z,84.80
2017-10-16T03:36:49.586Z,84.40
2017-10-16T03:39:16.752Z,86.20
2017-10-16T03:41:43.159Z,86.20
2017-10-16T03:44:09.558Z,85.90
2017-10-16T03:46:35.955Z,85.90
2017-10-16T03:49:02.397Z,85.70
2017-10-16T03:51:28.817Z,86.00
2017-10-16T03:53:55.220Z,85.50
2017-10-16T03:56:21.640Z,84.70
2017-10-16T03:58:48.045Z,84.90
2017-10-16T04:01:14.468Z,85.10
2017-10-16T04:03:40.835Z,85.20
2017-10-16T04:06:07.264Z,85.90
2017-10-16T04:08:33.702Z,85.40
2017-10-16T04:11:00.128Z,85.80
2017-10-16T04:13:26.582Z,85.60
2017-10-16T04:15:53.067Z,85.00
2017-10-16T04:18:19.825Z,86.30
2017-10-16T04:20:46.257Z,84.90
2017-10-16T04:23:12.660Z,85.10
2017-10-16T04:25:39.147Z,85.20
2017-10-16T04:28:06.384Z,85.20
2017-10-16T04:30:33.040Z,84.40
2017-10-16T04:32:59.496Z,84.50
2017-10-16T04:35:26.957Z,85.20
2017-10-16T04:37:54.232Z,85.40
2017-10-16T04:40:20.648Z,84.80
2017-10-16T04:42:47.107Z,84.70
2017-10-16T04:45:13.527Z,84.90
2017-10-16T04:47:39.963Z,84.00
2017-10-16T04:50:07.136Z,84.80
2017-10-16T04:52:33.585Z,84.50
2017-10-16T04:55:00.274Z,85.30
2017-10-16T04:57:26.807Z,84.80
2017-10-16T04:59:54.064Z,84.40
2017-10-16T05:02:20.473Z,84.40
2017-10-16T05:04:47.621Z,84.70
2017-10-16T05:07:14.033Z,84.70
2017-10-16T05:09:41.179Z,84.80
2017-10-16T05:12:07.611Z,84.80
2017-10-16T05:14:34.125Z,84.80
2017-10-16T05:17:00.652Z,84.60
2017-10-16T05:19:27.081Z,84.00
2017-10-16T05:21:53.494Z,84.10
2017-10-16T05:24:19.917Z,84.60
2017-10-16T05:26:47.092Z,84.90
2017-10-16T05:29:13.546Z,84.90
2017-10-16T05:31:39.968Z,85.00
2017-10-16T05:34:06.413Z,84.10
2017-10-16T05:36:32.899Z,84.90
2017-10-16T05:39:00.081Z,84.40
2017-10-16T05:41:27.280Z,84.60
2017-10-16T05:43:54.473Z,84.50
2017-10-16T05:46:21.017Z,84.40
2017-10-16T05:48:47.519Z,84.20
2017-10-16T05:51:14.697Z,84.40
2017-10-16T05:53:41.099Z,84.40
2017-10-16T05:56:08.514Z,84.50
2017-10-16T05:58:35.719Z,84.80
2017-10-16T06:01:02.187Z,84.90
2017-10-16T06:03:28.667Z,84.60
2017-10-16T06:05:55.089Z,84.40
2017-10-16T06:08:21.557Z,84.50
2017-10-16T06:10:47.992Z,84.70
2017-10-16T06:13:14.436Z,84.60
2017-10-16T06:15:40.915Z,85.20
2017-10-16T06:18:07.449Z,85.40
2017-10-16T06:20:33.918Z,86.00
2017-10-16T06:23:01.185Z,86.00
2017-10-16T06:25:27.652Z,85.90
2017-10-16T06:27:54.104Z,86.00
2017-10-16T06:30:20.573Z,86.20
2017-10-16T06:32:47.775Z,86.40
2017-10-16T06:35:14.211Z,86.40
2017-10-16T06:37:41.444Z,85.90
2017-10-16T06:40:07.861Z,85.90
2017-10-16T06:42:34.332Z,86.20
2017-10-16T06:45:00.785Z,86.10
2017-10-16T06:47:27.265Z,86.00
2017-10-16T06:49:53.759Z,85.70
2017-10-16T06:52:20.196Z,86.70
2017-10-16T06:54:46.616Z,87.60
2017-10-16T06:57:13.079Z,87.40
2017-10-16T06:59:40.236Z,86.90
2017-10-16T07:02:06.668Z,86.90
2017-10-16T07:04:33.108Z,86.30
2017-10-16T07:06:59.522Z,86.20
2017-10-16T07:09:26.703Z,85.90
2017-10-16T07:11:53.156Z,85.80
2017-10-16T07:14:19.619Z,85.50
2017-10-16T07:16:46.089Z,85.90
2017-10-16T07:19:12.557Z,85.80
2017-10-16T07:21:39.007Z,85.50
2017-10-16T07:24:07.501Z,85.30
2017-10-16T07:26:34.169Z,85.40
2017-10-16T07:29:01.372Z,85.70
2017-10-16T07:31:27.810Z,85.70
2017-10-16T07:33:54.289Z,85.00
2017-10-16T07:36:20.747Z,84.40
2017-10-16T07:38:47.176Z,84.10
2017-10-16T07:41:13.608Z,84.60
2017-10-16T07:43:40.048Z,84.50
2017-10-16T07:46:06.478Z,84.40
2017-10-16T07:48:32.877Z,84.50
2017-10-16T07:51:00.036Z,83.60
2017-10-16T07:53:27.159Z,83.50
2017-10-16T07:55:53.604Z,83.40
2017-10-16T07:58:20.737Z,84.00
2017-10-16T08:00:47.149Z,83.60
2017-10-16T08:03:13.645Z,83.20
2017-10-16T08:05:40.076Z,82.90
2017-10-16T08:08:06.508Z,82.70
2017-10-16T08:10:32.915Z,82.70
2017-10-16T08:12:59.377Z,82.20
2017-10-16T08:15:26.635Z,83.50
2017-10-16T08:17:53.067Z,82.30
2017-10-16T08:20:22.057Z,82.00
2017-10-16T08:22:50.754Z,82.40
2017-10-16T08:25:18.879Z,82.00
2017-10-16T08:27:48.356Z,82.00
2017-10-16T08:30:16.569Z,82.30
2017-10-16T08:32:45.808Z,81.60
2017-10-16T08:35:15.472Z,81.50
2017-10-16T08:37:43.325Z,81.20
2017-10-16T08:40:09.823Z,81.20
2017-10-16T08:42:36.353Z,81.10
2017-10-16T08:45:02.804Z,80.80
2017-10-16T08:47:29.292Z,81.40
2017-10-16T08:49:56.512Z,81.70
2017-10-16T08:52:22.989Z,81.70
2017-10-16T08:54:49.486Z,81.80
2017-10-16T08:57:15.962Z,81.30
2017-10-16T08:59:42.415Z,80.80
2017-10-16T09:02:08.855Z,81.10
2017-10-16T09:04:35.346Z,81.80
2017-10-16T09:07:02.593Z,80.60
2017-10-16T09:09:29.804Z,80.90
2017-10-16T09:11:56.248Z,80.70
2017-10-16T09:14:22.719Z,80.20
2017-10-16T09:16:49.905Z,79.80
2017-10-16T09:19:16.383Z,79.80
2017-10-16T09:21:42.830Z,79.40
2017-10-16T09:24:09.328Z,80.50
2017-10-16T09:26:36.525Z,80.60
2017-10-16T09:29:03.730Z,80.30
2017-10-16T09:31:30.208Z,80.30
2017-10-16T09:33:57.372Z,79.50
2017-10-16T09:36:30.892Z,79.40
2017-10-16T09:38:57.348Z,79.80
2017-10-16T09:41:23.794Z,79.50
2017-10-16T09:43:50.248Z,78.30
2017-10-16T09:46:17.436Z,78.30
2017-10-16T09:48:43.880Z,78.10
2017-10-16T09:51:10.340Z,79.00
2017-10-16T09:53:36.840Z,75.50
2017-10-16T09:56:03.290Z,74.10
2017-10-16T09:58:29.752Z,70.20
2017-10-16T10:00:56.952Z,70.60
2017-10-16T10:03:23.424Z,70.60
2017-10-16T10:05:49.909Z,68.90
2017-10-16T10:08:16.343Z,68.80
2017-10-16T10:10:42.796Z,67.40
2017-10-16T10:13:09.243Z,67.00
2017-10-16T10:15:39.726Z,66.20
2017-10-16T10:18:06.190Z,68.40
2017-10-16T10:20:32.629Z,66.90
2017-10-16T10:22:59.096Z,66.70
2017-10-16T10:25:25.536Z,66.50
2017-10-16T10:27:51.961Z,67.60
2017-10-16T10:30:18.377Z,64.90
2017-10-16T10:32:44.816Z,64.80
2017-10-16T10:35:11.219Z,64.30
2017-10-16T10:37:37.617Z,65.80
2017-10-16T10:40:04.787Z,66.10
2017-10-16T10:42:31.183Z,66.10
2017-10-16T10:44:57.623Z,65.50
2017-10-16T10:47:24.774Z,66.20
2017-10-16T10:49:51.948Z,64.30
2017-10-16T10:52:18.348Z,63.80
2017-10-16T10:54:44.808Z,65.20
2017-10-16T10:57:11.245Z,64.80
2017-10-16T10:59:37.723Z,64.30
2017-10-16T11:02:04.193Z,63.90
2017-10-16T11:04:31.340Z,63.60
2017-10-16T11:06:58.536Z,64.80
2017-10-16T11:09:25.009Z,64.20
2017-10-16T11:11:51.423Z,66.40
2017-10-16T11:14:17.903Z,65.00
2017-10-16T11:16:45.077Z,59.50
2017-10-16T11:19:11.512Z,59.30
2017-10-16T11:21:37.943Z,59.90
2017-10-16T11:24:04.456Z,59.90
2017-10-16T11:26:31.636Z,62.10
2017-10-16T11:28:58.112Z,62.10
2017-10-16T11:31:24.577Z,61.10
2017-10-16T11:33:51.813Z,58.90
2017-10-16T11:36:19.037Z,59.90
2017-10-16T11:38:45.508Z,59.80
2017-10-16T11:41:12.736Z,58.30
2017-10-16T11:43:39.220Z,58.20
2017-10-16T11:46:05.648Z,57.20
2017-10-16T11:48:32.095Z,57.40
2017-10-16T11:50:58.581Z,58.20
2017-10-16T11:53:25.820Z,57.90
2017-10-16T11:55:52.267Z,57.90
2017-10-16T11:58:18.728Z,57.70
2017-10-16T12:00:45.964Z,57.20
2017-10-16T12:03:13.140Z,58.00
2017-10-16T12:05:39.595Z,57.90
2017-10-16T12:08:06.084Z,56.50
2017-10-16T12:10:33.307Z,55.90
2017-10-16T12:12:59.745Z,55.90
2017-10-16T12:15:26.211Z,56.40
2017-10-16T12:17:53.419Z,57.20
2017-10-16T12:20:19.861Z,57.20
2017-10-16T12:22:46.281Z,57.60
2017-10-16T12:25:12.795Z,56.20
2017-10-16T12:27:39.228Z,57.10
2017-10-16T12:30:05.697Z,56.90
2017-10-16T12:32:32.164Z,56.30
2017-10-16T12:34:59.353Z,55.00
2017-10-16T12:37:25.841Z,54.90
2017-10-16T12:39:53.023Z,54.80
2017-10-16T12:42:19.449Z,54.70
2017-10-16T12:44:45.910Z,54.30
2017-10-16T12:47:12.357Z,53.60
2017-10-16T12:49:38.821Z,53.30
2017-10-16T12:52:06.006Z,53.90
2017-10-16T12:54:32.488Z,53.90
2017-10-16T12:56:58.937Z,53.50
2017-10-16T12:59:26.136Z,52.00
2017-10-16T13:01:52.629Z,51.90
2017-10-16T13:04:19.824Z,53.20
2017-10-16T13:06:46.305Z,53.30
2017-10-16T13:09:12.748Z,53.50
2017-10-16T13:11:39.968Z,52.60
2017-10-16T13:14:06.423Z,52.60
2017-10-16T13:16:33.630Z,52.60
2017-10-16T13:19:00.980Z,51.90
2017-10-16T13:21:27.464Z,51.90
2017-10-16T13:23:55.741Z,52.70
2017-10-16T13:26:22.941Z,51.40
2017-10-16T13:28:49.421Z,51.40
2017-10-16T13:31:15.879Z,52.00
2017-10-16T13:33:42.374Z,53.30
2017-10-16T13:36:08.817Z,53.30
2017-10-16T13:38:35.312Z,53.20
2017-10-16T13:41:01.807Z,53.80
2017-10-16T13:43:29.053Z,54.90
2017-10-16T13:45:56.285Z,56.00
2017-10-16T13:48:22.795Z,55.90
2017-10-16T13:50:49.288Z,53.80
2017-10-16T13:53:16.549Z,54.70
2017-10-16T13:55:43.101Z,54.70
2017-10-16T13:58:09.548Z,54.50
2017-10-16T14:00:36.005Z,55.10
2017-10-16T14:03:02.456Z,55.50
2017-10-16T14:05:29.653Z,55.80
2017-10-16T14:07:56.137Z,55.70
2017-10-16T14:10:22.604Z,56.40
2017-10-16T14:12:49.067Z,56.60
2017-10-16T14:15:15.529Z,56.30
2017-10-16T14:17:42.008Z,56.70
2017-10-16T14:20:08.463Z,56.70
2017-10-16T14:22:34.931Z,58.20
2017-10-16T14:25:01.435Z,56.40
2017-10-16T14:27:27.907Z,58.40
2017-10-16T14:29:55.125Z,58.40
2017-10-16T14:32:21.599Z,58.30
2017-10-16T14:34:48.779Z,57.30
2017-10-16T14:37:15.252Z,57.30
2017-10-16T14:39:41.698Z,57.90
2017-10-16T14:42:08.168Z,58.00
2017-10-16T14:44:34.641Z,57.20
2017-10-16T14:47:01.087Z,57.10
2017-10-16T14:49:27.560Z,57.50
2017-10-16T14:51:54.068Z,57.30
2017-10-16T14:54:20.564Z,57.20
2017-10-16T14:56:46.991Z,57.30
2017-10-16T14:59:13.420Z,59.00
2017-10-16T15:01:39.965Z,59.10
2017-10-16T15:04:06.432Z,59.30
2017-10-16T15:06:32.920Z,58.80
2017-10-16T15:08:59.440Z,57.70
2017-10-16T15:11:27.309Z,60.50
2017-10-16T15:13:53.845Z,60.50
2017-10-16T15:16:20.412Z,58.60
2017-10-16T15:18:46.896Z,58.70
2017-10-16T15:21:13.332Z,60.30
2017-10-16T15:23:41.010Z,58.90
2017-10-16T15:26:07.720Z,58.80
2017-10-16T15:28:34.480Z,60.10
2017-10-16T15:31:01.416Z,63.00
2017-10-16T15:33:28.099Z,59.70
2017-10-16T15:35:54.616Z,61.00
2017-10-16T15:38:21.103Z,63.80
2017-10-16T15:40:47.896Z,63.40
2017-10-16T15:43:14.418Z,62.60
2017-10-16T15:45:40.976Z,65.00
2017-10-16T15:48:07.441Z,66.60
2017-10-16T15:50:33.915Z,68.70
2017-10-16T15:53:01.104Z,71.00
2017-10-16T15:55:27.572Z,71.00
2017-10-16T15:57:54.008Z,72.30
2017-10-16T16:00:20.489Z,72.60
2017-10-16T16:02:46.923Z,73.20
2017-10-16T16:05:13.782Z,74.30
2017-10-16T16:07:40.632Z,74.60
2017-10-16T16:10:07.897Z,74.80
2017-10-16T16:12:34.388Z,74.80
2017-10-16T16:15:01.652Z,76.30
2017-10-16T16:17:28.880Z,76.30
2017-10-16T16:19:55.473Z,77.20
2017-10-16T16:22:22.964Z,78.10
2017-10-16T16:24:50.196Z,78.70
2017-10-16T16:27:16.640Z,78.70
2017-10-16T16:29:43.867Z,78.40
2017-10-16T16:32:10.348Z,77.80
2017-10-16T16:34:37.608Z,79.50
2017-10-16T16:37:04.117Z,79.40
2017-10-16T16:39:31.313Z,79.50
2017-10-16T16:41:57.799Z,79.10
2017-10-16T16:44:24.265Z,80.20
2017-10-16T16:46:50.745Z,79.90
2017-10-16T16:49:17.187Z,80.30
2017-10-16T16:51:43.656Z,81.90
2017-10-16T16:54:10.836Z,81.60
2017-10-16T16:56:37.249Z,81.60
2017-10-16T16:59:03.748Z,80.90
2017-10-16T17:01:30.225Z,81.50
2017-10-16T17:03:56.732Z,82.00
2017-10-16T17:06:23.924Z,82.70
2017-10-16T17:08:50.425Z,82.60
2017-10-16T17:11:17.674Z,82.70
2017-10-16T17:13:44.867Z,81.40
2017-10-16T17:16:11.450Z,81.30
2017-10-16T17:18:38.656Z,83.40
2017-10-16T17:21:05.356Z,83.40
2017-10-16T17:23:31.909Z,83.30
2017-10-16T17:25:58.384Z,83.70
2017-10-16T17:28:24.850Z,83.60
2017-10-16T17:30:52.044Z,84.40
2017-10-16T17:33:18.480Z,84.30
2017-10-16T17:35:44.924Z,84.50
2017-10-16T17:38:11.356Z,84.80
2017-10-16T17:40:37.836Z,84.90
2017-10-16T17:43:05.047Z,84.40
2017-10-16T17:45:31.527Z,84.40
2017-10-16T17:47:58.669Z,84.40
2017-10-16T17:50:25.865Z,84.70
2017-10-16T17:52:52.309Z,84.60
2017-10-16T17:55:18.769Z,84.80
2017-10-16T17:57:45.189Z,85.60
2017-10-16T18:00:11.708Z,85.30
2017-10-16T18:02:38.172Z,86.10
2017-10-16T18:05:04.601Z,85.30
2017-10-16T18:07:31.445Z,85.80
2017-10-16T18:09:57.940Z,85.80
2017-10-16T18:12:24.777Z,85.50
2017-10-16T18:14:51.508Z,85.60
2017-10-16T18:17:18.093Z,85.80
2017-10-16T18:19:44.688Z,85.80
2017-10-16T18:22:11.132Z,86.00
2017-10-16T18:24:37.744Z,86.70
2017-10-16T18:27:04.212Z,87.10
2017-10-16T18:29:30.672Z,87.30
2017-10-16T18:31:57.150Z,87.50
2017-10-16T18:34:23.635Z,87.00
2017-10-16T18:36:50.113Z,87.10
2017-10-16T18:39:16.557Z,87.40
2017-10-16T18:41:43.080Z,87.50
2017-10-16T18:44:09.542Z,88.20
2017-10-16T18:46:36.017Z,88.40
2017-10-16T18:49:02.484Z,88.30
2017-10-16T18:51:28.904Z,88.40
2017-10-16T18:53:56.177Z,89.10
2017-10-16T18:56:22.601Z,89.10
2017-10-16T18:58:49.824Z,89.00
2017-10-16T19:01:16.369Z,89.00
2017-10-16T19:03:42.764Z,88.90
2017-10-16T19:06:09.245Z,88.60
2017-10-16T19:08:36.107Z,88.30
2017-10-16T19:11:02.612Z,88.60
2017-10-16T19:13:29.972Z,88.50
2017-10-16T19:15:57.170Z,88.70
2017-10-16T19:18:23.641Z,88.70
2017-10-16T19:20:50.151Z,89.10
2017-10-16T19:23:16.624Z,89.20
2017-10-16T19:25:44.080Z,89.30
2017-10-16T19:28:11.468Z,89.40
2017-10-16T19:30:38.775Z,89.10
2017-10-16T19:33:05.505Z,89.10
2017-10-16T19:35:32.209Z,88.80
2017-10-16T19:37:58.853Z,88.80
2017-10-16T19:40:25.300Z,89.10
2017-10-16T19:42:51.825Z,89.40
2017-10-16T19:45:18.331Z,89.40
2017-10-16T19:47:45.137Z,89.60
2017-10-16T19:50:11.603Z,89.40
2017-10-16T19:52:39.305Z,89.30
2017-10-16T19:55:05.816Z,89.30
2017-10-16T19:57:32.581Z,89.30
2017-10-16T19:59:59.200Z,89.20
2017-10-16T20:02:25.844Z,89.70
2017-10-16T20:04:52.464Z,89.30
2017-10-16T20:07:19.025Z,89.60
2017-10-16T20:09:45.745Z,89.20
2017-10-16T20:12:12.404Z,89.40
2017-10-16T20:14:39.094Z,89.60
2017-10-16T20:17:06.376Z,89.40
2017-10-16T20:19:32.920Z,89.40
2017-10-16T20:21:59.445Z,89.40
2017-10-16T20:24:25.987Z,89.50
2017-10-16T20:26:52.692Z,89.20
2017-10-16T20:29:19.229Z,89.50
2017-10-16T20:31:46.408Z,89.40
2017-10-16T20:34:13.068Z,89.30
2017-10-16T20:36:39.766Z,89.40
2017-10-16T20:39:06.478Z,89.40
2017-10-16T20:41:33.329Z,89.40
2017-10-16T20:44:00.022Z,89.50
2017-10-16T20:46:26.968Z,89.60
2017-10-16T20:48:53.863Z,89.70
2017-10-16T20:51:20.490Z,89.60
2017-10-16T20:53:47.976Z,89.80
2017-10-16T20:56:14.790Z,89.60
2017-10-16T20:58:41.593Z,89.50
2017-10-16T21:01:09.307Z,89.60
2017-10-16T21:03:36.204Z,89.60
2017-10-16T21:06:03.050Z,89.80
2017-10-16T21:08:30.466Z,89.40
2017-10-16T21:10:57.782Z,89.40
2017-10-16T21:13:24.409Z,89.40
2017-10-16T21:15:50.980Z,89.30
2017-10-16T21:18:18.198Z,89.30
2017-10-16T21:20:44.912Z,89.20
2017-10-16T21:23:11.437Z,89.30
2017-10-16T21:25:37.916Z,89.00
2017-10-16T21:28:04.379Z,88.70
2017-10-16T21:30:32.126Z,88.90
2017-10-16T21:32:58.712Z,88.90
2017-10-16T21:35:25.928Z,89.30
2017-10-16T21:37:53.124Z,88.80
2017-10-16T21:40:20.320Z,88.90
2017-10-16T21:42:46.736Z,88.90
2017-10-16T21:45:13.312Z,88.70
2017-10-16T21:47:39.752Z,88.70
2017-10-16T21:50:06.203Z,88.60
2017-10-16T21:52:32.648Z,88.60
2017-10-16T21:54:59.106Z,88.80
2017-10-16T21:57:25.556Z,89.20
2017-10-16T21:59:52.021Z,89.20
2017-10-16T22:02:18.444Z,88.90
2017-10-16T22:04:44.985Z,88.90
2017-10-16T22:07:11.427Z,89.10
2017-10-16T22:09:37.872Z,89.10
2017-10-16T22:12:04.333Z,88.60
2017-10-16T22:14:30.821Z,88.30
2017-10-16T22:16:57.405Z,88.60
2017-10-16T22:19:24.625Z,88.50
2017-10-16T22:21:51.067Z,88.60
2017-10-16T22:24:17.569Z,88.40
2017-10-16T22:26:44.092Z,88.50
2017-10-16T22:29:11.280Z,88.60
2017-10-16T22:31:37.820Z,88.50
2017-10-16T22:34:04.312Z,88.60
2017-10-16T22:36:31.487Z,88.70
2017-10-16T22:38:57.977Z,88.60
2017-10-16T22:41:24.408Z,88.60
2017-10-16T22:43:50.848Z,88.10
2017-10-16T22:46:17.323Z,88.30
2017-10-16T22:48:44.572Z,88.10
2017-10-16T22:51:11.016Z,88.60
2017-10-16T22:53:37.486Z,88.50
2017-10-16T22:56:03.969Z,88.40
2017-10-16T22:58:30.412Z,88.20
2017-10-16T23:00:56.860Z,88.40
2017-10-16T23:03:23.325Z,88.80
2017-10-16T23:05:49.889Z,88.30
2017-10-16T23:08:17.131Z,88.60
2017-10-16T23:10:43.593Z,88.40
2017-10-16T23:13:10.042Z,89.60
2017-10-16T23:15:36.535Z,88.20
2017-10-16T23:18:02.996Z,88.30
2017-10-16T23:20:29.436Z,88.20
2017-10-16T23:22:55.892Z,88.00
2017-10-16T23:25:22.369Z,88.20
2017-10-16T23:27:49.593Z,88.50
2017-10-16T23:30:16.060Z,88.30
2017-10-16T23:32:43.247Z,88.30
2017-10-16T23:35:09.760Z,88.30
2017-10-16T23:37:36.292Z,87.90
2017-10-16T23:40:03.537Z,87.80
2017-10-16T23:42:30.036Z,87.80
2017-10-16T23:44:56.639Z,88.00
2017-10-16T23:47:23.059Z,88.00
2017-10-16T23:49:49.488Z,88.00
2017-10-16T23:52:15.952Z,87.80
2017-10-16T23:54:42.432Z,87.50
2017-10-16T23:57:09.643Z,87.90
2017-10-16T23:59:36.127Z,87.50
